Etusivu
METAR-TAF:

METAR-TAF

Lentoasemat :

Fillmore County Airport

Preston, Minnesota, Yhdysvallat

Leveyspiiri: 43-40-36N, Pituuspiiri: 092-10-47W, korkeus merenpinnasta: 389 m

Tämänhetkinen sää

Tämä raportti tehtiin 32 minuuttia sitten, kello 17.15 UTC
Tuuli 11 kn etelästä/lounaasta puuskistuen 14 kn:hen
Lämpötila -6°C
Kosteus 79%
Ilmanpaine 1014 hPa
Näkyvyys: 16.1 km
Pilvistä 1500 ft:n korkeudessa

METAR: KFKA 131715Z AUTO 20011G14KT 10SM OVC015 M06/M09 A2994 RMK AO2 T10631094

Aika: 11:47 (17:47 UTC)


TAF: puuttuu

Säähavainnot ja -ennusteet yli 4000 lentoasemalta (METAR- ja TAF-raportit).

Käytössä olevat sääasemat on merkitty karttaan keltaisilla ja punaisilla pisteillä.

Aseta hiiri pisteen päälle nähdäksesi sääaseman nimen.

Klikkaa sitten nähdäksesi säähavainnot ja -ennusteet.

Kartan vaihtaminen: klikkaa mustalla rastilla varustettuja vihreitä pisteitä, niin voit zoomata sisään; viivalla varustettua vihreää pistettä, niin voit zoomata ulos tai vihreitä nuolia, niin pääset viereisille kartoille.


METAR-TAF: